createdAt,value
2018-07-14T00:08:41.559Z,86.35
2018-07-14T00:09:41.449Z,87.12
2018-07-14T00:10:41.392Z,86.93
2018-07-14T00:11:41.286Z,87.03
2018-07-14T00:12:41.211Z,87.41
2018-07-14T00:13:41.122Z,87.46
2018-07-14T00:14:41.079Z,87.41
2018-07-14T00:15:40.969Z,87.85
2018-07-14T00:16:40.911Z,87.80
2018-07-14T00:17:40.823Z,88.24
2018-07-14T00:18:40.782Z,88.71
2018-07-14T00:19:40.696Z,88.53
2018-07-14T00:20:40.599Z,88.53
2018-07-14T00:21:40.503Z,88.81
2018-07-14T00:22:40.441Z,88.91
2018-07-14T00:23:40.370Z,89.10
2018-07-14T00:24:40.280Z,88.91
2018-07-14T00:25:40.210Z,89.01
2018-07-14T00:26:40.120Z,89.39
2018-07-14T00:27:40.042Z,89.10
2018-07-14T00:28:39.966Z,89.20
2018-07-14T00:29:39.880Z,89.29
2018-07-14T00:30:39.843Z,89.10
2018-07-14T00:31:39.739Z,89.68
2018-07-14T00:32:39.643Z,89.68
2018-07-14T00:33:39.595Z,89.68
2018-07-14T00:34:39.513Z,90.35
2018-07-14T00:35:39.413Z,90.35
2018-07-14T00:36:39.380Z,90.26
2018-07-14T00:37:39.280Z,91.13
2018-07-14T00:38:39.201Z,91.22
2018-07-14T00:39:39.091Z,90.89
2018-07-14T00:40:39.095Z,91.36
2018-07-14T00:41:38.966Z,91.66
2018-07-14T00:42:38.870Z,91.17
2018-07-14T00:43:38.787Z,91.66
2018-07-14T00:44:38.720Z,91.94
2018-07-14T00:45:38.630Z,92.52
2018-07-14T00:46:38.584Z,91.85
2018-07-14T00:47:38.473Z,91.85
2018-07-14T00:48:38.434Z,91.66
2018-07-14T00:49:38.318Z,92.13
2018-07-14T00:50:38.241Z,92.33
2018-07-14T00:51:38.188Z,91.75
2018-07-14T00:52:38.085Z,91.85
2018-07-14T00:53:38.036Z,91.66
2018-07-14T00:54:37.933Z,92.33
2018-07-14T00:55:37.877Z,92.13
2018-07-14T00:56:37.791Z,92.52
2018-07-14T00:57:37.727Z,92.13
2018-07-14T00:58:37.640Z,92.52
2018-07-14T00:59:37.572Z,92.81
2018-07-14T01:00:37.470Z,92.81
2018-07-14T01:01:37.422Z,92.71
2018-07-14T01:02:37.312Z,92.33
2018-07-14T01:03:37.245Z,92.81
2018-07-14T01:04:37.152Z,92.43
2018-07-14T01:05:37.071Z,92.81
2018-07-14T01:06:37.013Z,92.91
2018-07-14T01:07:36.910Z,93.10
2018-07-14T01:10:18.779Z,93.38
2018-07-14T01:11:19.727Z,93.48
2018-07-14T01:12:18.645Z,93.29
2018-07-14T01:15:00.793Z,93.58
2018-07-14T01:16:00.718Z,93.29
2018-07-14T01:17:00.646Z,94.06
2018-07-14T01:18:00.563Z,94.15
2018-07-14T01:19:00.468Z,94.54
2018-07-14T01:20:00.392Z,93.91
2018-07-14T01:21:00.305Z,94.15
2018-07-14T01:22:00.241Z,94.64
2018-07-14T01:23:00.167Z,94.11
2018-07-14T01:27:15.807Z,94.59
2018-07-14T01:28:15.746Z,94.30
2018-07-14T01:29:15.628Z,94.64
2018-07-14T01:31:57.792Z,95.07
2018-07-14T01:32:57.750Z,94.88
2018-07-14T01:33:57.636Z,95.02
2018-07-14T01:34:57.569Z,95.26
2018-07-14T01:35:57.474Z,95.65
2018-07-14T01:36:57.391Z,96.51
2018-07-14T01:37:57.358Z,95.84
2018-07-14T01:42:46.790Z,96.03
2018-07-14T01:43:46.764Z,96.32
2018-07-14T01:44:46.625Z,96.42
2018-07-14T01:45:46.571Z,96.42
2018-07-14T01:46:46.475Z,96.61
2018-07-14T01:47:46.405Z,97.19
2018-07-14T01:48:46.347Z,97.57
2018-07-14T01:49:46.252Z,97.19
2018-07-14T01:50:46.158Z,97.28
2018-07-14T01:53:28.321Z,98.34
2018-07-14T01:54:28.222Z,98.05
2018-07-14T01:55:28.157Z,98.05
2018-07-14T01:56:28.075Z,98.86
2018-07-14T01:57:27.978Z,98.58
2018-07-14T01:58:28.950Z,98.82
2018-07-14T01:59:27.848Z,98.39
2018-07-14T02:00:27.758Z,98.10
2018-07-14T02:01:27.676Z,98.53
2018-07-14T02:02:27.593Z,98.77
2018-07-14T02:03:27.515Z,98.86
2018-07-14T02:04:28.478Z,98.96
2018-07-14T02:05:27.357Z,99.25
2018-07-14T02:06:27.293Z,99.44
2018-07-14T02:07:27.197Z,99.99
2018-07-14T02:08:27.125Z,99.99
2018-07-14T02:09:27.068Z,99.99
2018-07-14T02:10:26.975Z,99.99
2018-07-14T02:11:26.883Z,99.99
2018-07-14T02:12:26.818Z,99.99
2018-07-14T02:21:49.775Z,99.99
2018-07-14T02:22:49.680Z,99.99
2018-07-14T02:23:49.597Z,99.99
2018-07-14T02:24:49.505Z,99.99
2018-07-14T02:25:49.434Z,99.99
2018-07-14T02:26:49.373Z,99.99
2018-07-14T02:27:49.292Z,99.99
2018-07-14T02:28:49.193Z,99.99
2018-07-14T02:29:49.121Z,99.99
2018-07-14T02:30:49.059Z,99.99
2018-07-14T02:31:48.975Z,99.99
2018-07-14T02:32:48.892Z,99.99
2018-07-14T02:35:30.817Z,99.99
2018-07-14T02:36:30.736Z,99.99
2018-07-14T02:37:30.648Z,99.99
2018-07-14T02:38:30.567Z,99.99
2018-07-14T02:39:30.492Z,99.99
2018-07-14T02:40:30.435Z,99.99
2018-07-14T02:41:30.362Z,99.99
2018-07-14T02:42:30.262Z,99.99
2018-07-14T02:43:30.174Z,99.99
2018-07-14T02:44:30.103Z,99.99
2018-07-14T02:45:30.021Z,99.99
2018-07-14T02:46:30.025Z,99.99
2018-07-14T02:47:29.869Z,99.99
2018-07-14T02:48:29.805Z,99.99
2018-07-14T02:49:29.705Z,99.99
2018-07-14T02:50:29.644Z,99.99
2018-07-14T02:51:29.545Z,99.99
2018-07-14T02:52:30.491Z,99.99
2018-07-14T02:53:29.385Z,99.99
2018-07-14T02:54:29.316Z,99.99
2018-07-14T02:55:29.234Z,99.99
2018-07-14T02:56:30.174Z,99.99
2018-07-14T02:57:29.073Z,99.99
2018-07-14T02:58:29.184Z,99.99
2018-07-14T02:59:28.919Z,99.99
2018-07-14T03:00:28.855Z,99.99
2018-07-14T03:01:28.756Z,99.99
2018-07-14T03:02:28.691Z,99.99
2018-07-14T03:03:28.688Z,99.99
2018-07-14T03:04:28.530Z,99.99
2018-07-14T03:05:28.444Z,99.99
2018-07-14T03:06:28.372Z,99.99
2018-07-14T03:07:28.289Z,99.99
2018-07-14T03:08:28.233Z,99.99
2018-07-14T03:09:28.125Z,99.99
2018-07-14T03:10:28.054Z,99.99
2018-07-14T03:11:27.969Z,99.99
2018-07-14T03:12:27.900Z,99.99
2018-07-14T03:13:27.834Z,99.99
2018-07-14T03:14:27.759Z,99.99
2018-07-14T03:15:27.705Z,99.99
2018-07-14T03:16:27.592Z,99.99
2018-07-14T03:17:27.495Z,99.99
2018-07-14T03:18:28.439Z,99.99
2018-07-14T03:19:27.416Z,99.99
2018-07-14T03:20:27.262Z,99.99
2018-07-14T03:21:27.192Z,99.99
2018-07-14T03:24:09.342Z,99.99
2018-07-14T03:25:09.250Z,99.99
2018-07-14T03:26:09.164Z,99.99
2018-07-14T03:27:09.090Z,99.99
2018-07-14T03:28:09.028Z,99.99
2018-07-14T03:29:08.952Z,99.99
2018-07-14T03:30:08.857Z,99.99
2018-07-14T03:32:50.821Z,99.99
2018-07-14T03:33:50.769Z,99.99
2018-07-14T03:34:50.682Z,99.99
2018-07-14T03:35:50.599Z,99.99
2018-07-14T03:36:50.527Z,99.99
2018-07-14T03:37:50.445Z,99.99
2018-07-14T03:38:50.349Z,99.99
2018-07-14T03:39:51.295Z,99.99
2018-07-14T03:40:50.187Z,99.99
2018-07-14T03:41:50.128Z,99.99
2018-07-14T03:42:50.035Z,99.99
2018-07-14T03:43:49.964Z,99.99
2018-07-14T03:44:49.897Z,99.99
2018-07-14T03:45:49.816Z,99.99
2018-07-14T03:46:49.721Z,99.99
2018-07-14T03:47:49.705Z,99.99
2018-07-14T03:48:49.567Z,99.99
2018-07-14T03:49:49.514Z,99.99
2018-07-14T03:50:49.427Z,99.99
2018-07-14T03:53:31.327Z,99.99
2018-07-14T03:54:52.228Z,99.99
2018-07-14T03:55:31.209Z,99.99
2018-07-14T03:56:31.131Z,99.99
2018-07-14T03:57:31.007Z,99.99
2018-07-14T04:00:12.825Z,99.99
2018-07-14T04:01:12.874Z,99.99
2018-07-14T04:02:12.669Z,99.99
2018-07-14T04:04:54.843Z,99.99
2018-07-14T04:05:54.836Z,99.99
2018-07-14T04:06:54.688Z,99.99
2018-07-14T04:07:54.645Z,99.99
2018-07-14T04:08:54.521Z,99.99
2018-07-14T04:09:54.555Z,99.99
2018-07-14T04:10:54.370Z,99.99
2018-07-14T04:11:54.405Z,99.99
2018-07-14T04:12:54.203Z,99.99
2018-07-14T04:15:36.334Z,99.99
2018-07-14T04:16:37.343Z,99.99
2018-07-14T04:17:36.184Z,99.99
2018-07-14T04:18:36.190Z,99.99
2018-07-14T04:19:36.032Z,99.99
2018-07-14T04:20:35.990Z,99.99
2018-07-14T04:21:35.876Z,99.99
2018-07-14T04:22:35.829Z,99.99
2018-07-14T04:23:35.702Z,99.99
2018-07-14T04:26:17.839Z,99.99
2018-07-14T04:27:17.864Z,99.99
2018-07-14T04:28:17.700Z,99.99
2018-07-14T04:29:17.721Z,99.99
2018-07-14T04:32:06.345Z,99.99
2018-07-14T04:33:06.350Z,99.99
2018-07-14T04:34:06.193Z,99.99
2018-07-14T04:35:06.186Z,99.99
2018-07-14T04:36:06.033Z,99.99
2018-07-14T04:38:47.876Z,99.99
2018-07-14T04:41:29.856Z,99.99
2018-07-14T04:42:33.826Z,99.99
2018-07-14T04:43:29.719Z,99.99
2018-07-14T04:44:31.768Z,99.99
2018-07-14T04:45:29.545Z,99.99
2018-07-14T04:46:29.501Z,99.99
2018-07-14T04:47:29.396Z,99.99
2018-07-14T05:07:09.809Z,99.99
2018-07-14T05:08:09.688Z,99.99
2018-07-14T05:09:09.694Z,99.99
2018-07-14T05:10:09.559Z,99.99
2018-07-14T05:11:09.550Z,99.99
2018-07-14T05:12:09.361Z,99.99
2018-07-14T05:13:09.420Z,99.99
2018-07-14T05:14:09.215Z,99.99
2018-07-14T05:15:09.259Z,99.99
2018-07-14T05:16:09.052Z,99.99
2018-07-14T05:18:51.348Z,99.99
2018-07-14T05:19:51.294Z,99.99
2018-07-14T05:20:51.208Z,99.99
2018-07-14T05:21:51.247Z,99.99
2018-07-14T05:22:51.056Z,99.99
2018-07-14T05:25:32.856Z,99.99
2018-07-14T05:26:32.887Z,99.99
2018-07-14T05:27:32.698Z,99.99
2018-07-14T05:28:32.672Z,99.99
2018-07-14T05:29:32.557Z,99.99
2018-07-14T05:30:32.604Z,99.99
2018-07-14T05:31:32.392Z,99.99
2018-07-14T05:32:32.366Z,99.99
2018-07-14T05:33:32.238Z,99.99
2018-07-14T05:34:32.176Z,99.99
2018-07-14T05:35:32.084Z,99.99
2018-07-14T05:36:32.120Z,99.99
2018-07-14T05:37:31.902Z,99.99
2018-07-14T05:38:31.896Z,99.99
2018-07-14T05:39:31.767Z,99.99
2018-07-14T05:40:31.714Z,99.99
2018-07-14T05:41:31.625Z,99.99
2018-07-14T05:42:31.629Z,99.99
2018-07-14T05:43:31.437Z,99.99
2018-07-14T05:44:31.432Z,99.99
2018-07-14T05:46:55.883Z,99.99
2018-07-14T05:47:55.826Z,99.99
2018-07-14T05:48:55.723Z,99.99
2018-07-14T05:49:56.684Z,99.99
2018-07-14T05:50:55.542Z,99.99
2018-07-14T05:51:55.615Z,99.99
2018-07-14T05:52:55.400Z,99.99
2018-07-14T05:53:55.451Z,99.99
2018-07-14T05:54:55.234Z,99.99
2018-07-14T05:57:37.395Z,99.35
2018-07-14T06:00:23.362Z,98.68
2018-07-14T06:01:23.346Z,98.58
2018-07-14T06:03:47.912Z,97.86
2018-07-14T06:04:47.839Z,97.47
2018-07-14T06:05:47.706Z,97.47
2018-07-14T06:06:47.747Z,97.57
2018-07-14T06:07:47.724Z,97.28
2018-07-14T06:08:47.566Z,96.61
2018-07-14T06:09:47.401Z,97.52
2018-07-14T06:10:47.375Z,96.56
2018-07-14T06:11:47.238Z,96.32
2018-07-14T06:12:47.282Z,96.42
2018-07-14T06:13:47.107Z,95.69
2018-07-14T06:14:47.090Z,95.31
2018-07-14T06:15:46.929Z,95.98
2018-07-14T06:16:46.895Z,95.60
2018-07-14T06:17:46.788Z,96.27
2018-07-14T06:18:46.848Z,94.78
2018-07-14T06:19:46.619Z,93.24
2018-07-14T06:20:46.615Z,92.94
2018-07-14T06:21:46.460Z,92.76
2018-07-14T06:22:46.444Z,92.66
2018-07-14T06:23:46.372Z,91.89
2018-07-14T06:24:46.348Z,91.89
2018-07-14T06:25:46.145Z,91.26
2018-07-14T06:26:46.141Z,91.26
2018-07-14T06:27:45.998Z,90.97
2018-07-14T06:30:27.886Z,90.92
2018-07-14T06:31:27.807Z,88.65
2018-07-14T06:32:27.718Z,84.97
2018-07-14T06:33:27.667Z,83.03
2018-07-14T06:34:27.555Z,79.14
2018-07-14T06:35:27.595Z,76.02
2018-07-14T06:36:27.413Z,74.51
2018-07-14T06:37:27.348Z,73.09
2018-07-14T06:38:27.412Z,71.67
2018-07-14T06:39:27.286Z,71.42
2018-07-14T06:40:27.163Z,69.22
2018-07-14T06:41:27.126Z,68.70
2018-07-14T06:42:26.958Z,70.06
2018-07-14T06:58:49.894Z,67.34
2018-07-14T06:59:49.710Z,67.54
2018-07-14T07:00:49.803Z,68.89
2018-07-14T07:01:49.564Z,68.35
2018-07-14T07:02:49.572Z,67.76
2018-07-14T07:03:49.430Z,68.02
2018-07-14T07:06:31.423Z,70.35
2018-07-14T07:07:31.374Z,69.02
2018-07-14T07:08:31.244Z,67.57
2018-07-14T07:09:31.278Z,68.21
2018-07-14T07:10:31.108Z,68.96
2018-07-14T07:11:31.071Z,69.15
2018-07-14T07:12:30.973Z,68.35
2018-07-14T07:15:12.888Z,67.57
2018-07-14T07:34:52.985Z,61.70
2018-07-14T07:35:52.913Z,62.22
2018-07-14T07:36:52.836Z,61.18
2018-07-14T07:37:52.783Z,61.15
2018-07-14T07:38:52.690Z,60.75
2018-07-14T07:39:52.658Z,62.61
2018-07-14T07:40:52.561Z,64.69
2018-07-14T07:43:34.425Z,65.95
2018-07-14T07:44:34.363Z,65.11
2018-07-14T07:45:34.270Z,65.47
2018-07-14T07:46:34.218Z,64.56
2018-07-14T07:47:34.134Z,64.13
2018-07-14T07:48:35.077Z,62.60
2018-07-14T07:49:34.008Z,61.44
2018-07-14T07:50:33.936Z,61.34
2018-07-14T07:51:33.855Z,62.09
2018-07-14T07:52:33.784Z,62.67
2018-07-14T07:53:33.711Z,62.51
2018-07-14T07:54:34.669Z,61.73
2018-07-14T07:55:33.568Z,61.18
2018-07-14T07:56:33.515Z,60.23
2018-07-14T07:57:33.424Z,60.39
2018-07-14T07:58:33.369Z,60.78
2018-07-14T08:01:40.938Z,58.92
2018-07-14T08:02:40.841Z,60.08
2018-07-14T08:03:40.774Z,62.09
2018-07-14T08:04:40.715Z,61.73
2018-07-14T08:05:40.665Z,61.18
2018-07-14T08:06:40.576Z,60.46
2018-07-14T08:07:40.509Z,61.96
2018-07-14T08:08:40.470Z,63.00
2018-07-14T08:09:40.381Z,62.57
2018-07-14T08:10:41.322Z,61.99
2018-07-14T08:11:40.229Z,62.12
2018-07-14T08:12:40.192Z,60.75
2018-07-14T08:13:40.087Z,61.38
2018-07-14T08:16:21.954Z,60.92
2018-07-14T08:17:21.879Z,60.56
2018-07-14T08:18:21.786Z,60.39
2018-07-14T08:44:43.816Z,59.62
2018-07-14T08:45:43.629Z,60.52
2018-07-14T08:46:43.606Z,60.52
2018-07-14T08:47:43.521Z,59.38
2018-07-14T08:48:43.544Z,58.76
2018-07-14T08:49:43.361Z,57.46
2018-07-14T08:50:43.305Z,57.85
2018-07-14T08:51:43.239Z,57.59
2018-07-14T08:52:43.168Z,57.39
2018-07-14T08:53:43.113Z,58.56
2018-07-14T08:54:43.038Z,57.46
2018-07-14T08:55:42.999Z,59.03
2018-07-14T08:56:42.904Z,59.98
2018-07-14T08:57:42.844Z,59.52
2018-07-14T08:58:42.810Z,59.16
2018-07-14T08:59:42.702Z,60.24
2018-07-14T09:00:42.650Z,60.27
2018-07-14T09:01:42.577Z,58.97
2018-07-14T09:02:42.526Z,58.58
2018-07-14T09:03:42.496Z,58.58
2018-07-14T09:04:43.418Z,58.99
2018-07-14T09:05:42.305Z,57.85
2018-07-14T09:06:42.265Z,56.58
2018-07-14T09:07:42.161Z,56.75
2018-07-14T09:10:24.459Z,55.83
2018-07-14T09:13:06.449Z,55.61
2018-07-14T09:15:48.486Z,58.80
2018-07-14T09:16:48.419Z,56.12
2018-07-14T09:17:48.318Z,56.48
2018-07-14T09:20:30.494Z,54.79
2018-07-14T09:21:31.405Z,55.58
2018-07-14T09:22:30.336Z,55.80
2018-07-14T09:23:30.279Z,55.51
2018-07-14T09:24:30.226Z,55.44
2018-07-14T09:25:30.139Z,55.58
2018-07-14T09:26:30.079Z,56.33
2018-07-14T09:48:51.925Z,55.18
2018-07-14T09:51:33.996Z,55.05
2018-07-14T09:52:33.898Z,56.12
2018-07-14T09:53:33.841Z,56.29
2018-07-14T09:54:33.780Z,57.31
2018-07-14T09:55:33.705Z,56.85
2018-07-14T09:56:33.673Z,56.20
2018-07-14T09:57:33.577Z,55.24
2018-07-14T09:58:33.533Z,53.88
2018-07-14T09:59:33.457Z,53.58
2018-07-14T10:00:33.385Z,55.08
2018-07-14T10:01:33.305Z,54.49
2018-07-14T10:02:33.258Z,54.32
2018-07-14T10:03:33.330Z,54.28
2018-07-14T10:04:33.136Z,52.73
2018-07-14T10:05:33.061Z,52.05
2018-07-14T10:06:33.007Z,52.91
2018-07-14T10:07:32.940Z,51.46
2018-07-14T10:10:14.984Z,51.12
2018-07-14T10:11:14.957Z,53.27
2018-07-14T10:12:14.865Z,52.61
2018-07-14T10:13:14.862Z,52.00
2018-07-14T10:14:14.707Z,52.39
2018-07-14T10:15:14.653Z,52.49
2018-07-14T10:16:14.578Z,52.76
2018-07-14T10:17:14.533Z,52.69
2018-07-14T10:18:14.449Z,52.98
2018-07-14T10:19:14.408Z,53.52
2018-07-14T10:20:14.335Z,52.95
2018-07-14T10:21:14.317Z,52.39
2018-07-14T10:22:14.211Z,52.88
2018-07-14T10:23:14.233Z,52.00
2018-07-14T10:24:14.100Z,52.64
2018-07-14T10:25:14.156Z,52.76
2018-07-14T10:26:13.944Z,52.56
2018-07-14T10:27:13.955Z,52.37
2018-07-14T10:28:13.815Z,51.12
2018-07-14T10:30:55.998Z,52.37
2018-07-14T10:31:55.924Z,52.47
2018-07-14T10:32:55.863Z,52.29
2018-07-14T10:33:55.918Z,52.08
2018-07-14T10:34:55.724Z,52.56
2018-07-14T10:35:55.697Z,54.27
2018-07-14T10:36:55.594Z,53.68
2018-07-14T10:37:55.606Z,53.39
2018-07-14T10:38:55.551Z,52.64
2018-07-14T10:39:55.529Z,52.34
2018-07-14T10:40:55.368Z,52.17
2018-07-14T10:41:55.316Z,51.05
2018-07-14T10:42:55.222Z,51.34
2018-07-14T10:43:55.231Z,51.37
2018-07-14T10:44:55.099Z,50.39
2018-07-14T10:45:55.175Z,50.59
2018-07-14T10:46:55.000Z,50.32
2018-07-14T10:47:54.957Z,50.17
2018-07-14T10:48:54.850Z,51.44
2018-07-14T10:49:54.861Z,51.25
2018-07-14T10:50:54.746Z,50.90
2018-07-14T10:51:54.827Z,52.31
2018-07-14T10:52:54.639Z,51.61
2018-07-14T10:53:54.594Z,50.81
2018-07-14T10:54:54.475Z,51.37
2018-07-14T10:55:54.540Z,51.29
2018-07-14T10:56:54.354Z,50.81
2018-07-14T10:57:54.317Z,51.07
2018-07-14T10:58:54.244Z,51.73
2018-07-14T10:59:54.224Z,51.54
2018-07-14T11:00:54.135Z,50.63
2018-07-14T11:01:54.122Z,50.98
2018-07-14T11:02:54.018Z,50.93
2018-07-14T11:03:53.940Z,49.99
2018-07-14T11:04:53.881Z,49.51
2018-07-14T11:05:53.832Z,50.32
2018-07-14T11:06:53.745Z,51.37
2018-07-14T11:07:53.751Z,51.10
2018-07-14T11:08:53.593Z,50.83
2018-07-14T11:09:53.679Z,51.22
2018-07-14T11:10:53.510Z,50.76
2018-07-14T11:11:54.539Z,50.78
2018-07-14T11:12:53.388Z,50.46
2018-07-14T11:13:53.384Z,51.51
2018-07-14T11:14:53.223Z,52.44
2018-07-14T11:15:53.202Z,53.13
2018-07-14T11:16:53.119Z,51.98
2018-07-14T11:17:53.117Z,52.49
2018-07-14T11:18:52.982Z,52.80
2018-07-14T11:19:53.088Z,55.13
2018-07-14T11:20:52.861Z,56.01
2018-07-14T11:21:52.963Z,56.07
2018-07-14T11:22:52.724Z,55.32
2018-07-14T11:23:52.733Z,53.22
2018-07-14T11:24:52.609Z,52.29
2018-07-14T11:25:52.651Z,50.56
2018-07-14T11:26:52.496Z,49.51
2018-07-14T11:27:52.492Z,50.24
2018-07-14T11:28:52.333Z,50.49
2018-07-14T11:29:52.367Z,50.71
2018-07-14T11:30:52.203Z,48.58
2018-07-14T11:31:52.167Z,48.80
2018-07-14T11:32:52.148Z,48.36
2018-07-14T11:33:52.089Z,48.36
2018-07-14T11:34:51.979Z,48.19
2018-07-14T11:35:51.977Z,47.72
2018-07-14T11:36:51.810Z,47.69
2018-07-14T11:37:51.800Z,48.77
2018-07-14T11:38:51.711Z,48.09
2018-07-14T11:39:51.701Z,48.48
2018-07-14T11:40:51.579Z,48.04
2018-07-14T11:41:51.603Z,48.97
2018-07-14T11:42:51.472Z,50.12
2018-07-14T11:43:51.446Z,50.63
2018-07-14T11:44:51.331Z,49.77
2018-07-14T11:45:51.334Z,50.78
2018-07-14T11:46:51.207Z,49.51
2018-07-14T11:47:51.284Z,49.26
2018-07-14T11:48:51.183Z,50.78
2018-07-14T11:49:51.050Z,52.00
2018-07-14T11:50:50.938Z,53.60
2018-07-14T11:51:50.960Z,55.30
2018-07-14T11:52:50.808Z,55.69
2018-07-14T11:53:50.807Z,54.70
2018-07-14T11:54:50.702Z,52.90
2018-07-14T11:55:50.693Z,52.19
2018-07-14T11:56:50.552Z,52.54
2018-07-14T11:57:50.590Z,50.34
2018-07-14T11:58:50.456Z,49.68
2018-07-14T11:59:50.364Z,50.61
2018-07-14T12:00:50.292Z,52.36
2018-07-14T12:01:50.255Z,53.89
2018-07-14T12:02:50.165Z,55.13
2018-07-14T12:03:50.115Z,55.23
2018-07-14T12:04:50.174Z,55.69
2018-07-14T12:05:49.986Z,54.79
2018-07-14T12:06:49.895Z,54.52
2018-07-14T12:07:49.842Z,54.19
2018-07-14T12:08:49.759Z,52.53
2018-07-14T12:09:49.713Z,53.58
2018-07-14T12:10:49.631Z,53.58
2018-07-14T12:11:49.573Z,52.50
2018-07-14T12:12:49.497Z,52.75
2018-07-14T12:13:49.433Z,51.43
2018-07-14T12:14:49.379Z,52.54
2018-07-14T12:15:49.294Z,51.21
2018-07-14T12:16:49.230Z,52.40
2018-07-14T12:17:49.153Z,53.48
2018-07-14T12:18:49.118Z,53.28
2018-07-14T12:19:49.009Z,53.94
2018-07-14T12:20:49.007Z,54.60
2018-07-14T12:21:48.891Z,53.94
2018-07-14T12:22:48.798Z,54.72
2018-07-14T12:23:48.736Z,54.13
2018-07-14T12:24:48.661Z,53.77
2018-07-14T12:25:48.620Z,53.48
2018-07-14T12:26:48.593Z,52.38
2018-07-14T12:27:48.478Z,53.45
2018-07-14T12:28:48.407Z,53.45
2018-07-14T12:29:48.383Z,51.51
2018-07-14T12:30:48.248Z,52.75
2018-07-14T12:31:48.252Z,53.30
2018-07-14T12:32:48.101Z,54.54
2018-07-14T12:33:48.064Z,53.91
2018-07-14T12:34:47.962Z,53.91
2018-07-14T12:35:48.010Z,54.01
2018-07-14T12:36:47.909Z,54.62
2018-07-14T12:37:47.780Z,54.11
2018-07-14T12:38:47.669Z,54.99
2018-07-14T12:39:47.691Z,55.03
2018-07-14T12:40:47.567Z,54.96
2018-07-14T12:41:47.539Z,55.32
2018-07-14T12:42:47.426Z,54.76
2018-07-14T12:43:47.415Z,55.37
2018-07-14T12:44:47.260Z,54.69
2018-07-14T12:45:47.271Z,53.65
2018-07-14T12:46:47.099Z,52.87
2018-07-14T12:49:29.014Z,53.40
2018-07-14T12:50:29.545Z,53.42
2018-07-14T12:51:28.897Z,52.75
2018-07-14T12:52:28.835Z,52.77
2018-07-14T12:53:28.721Z,52.80
2018-07-14T12:54:28.744Z,52.77
2018-07-14T12:55:28.592Z,51.04
2018-07-14T12:56:28.596Z,51.24
2018-07-14T12:57:28.455Z,50.85
2018-07-14T12:58:28.465Z,50.16
2018-07-14T12:59:28.294Z,51.02
2018-07-14T13:00:28.298Z,50.82
2018-07-14T13:01:28.194Z,50.43
2018-07-14T13:02:29.147Z,50.04
2018-07-14T13:03:28.022Z,51.04
2018-07-14T13:04:27.997Z,50.56
2018-07-14T13:05:27.869Z,49.39
2018-07-14T13:06:28.669Z,49.07
2018-07-14T13:07:27.732Z,49.17
2018-07-14T13:08:28.626Z,50.53
2018-07-14T13:09:27.586Z,48.78
2018-07-14T13:10:27.632Z,49.63
2018-07-14T13:11:27.449Z,50.51
2018-07-14T13:12:28.491Z,49.85
2018-07-14T13:13:27.337Z,50.04
2018-07-14T13:14:27.344Z,48.95
2018-07-14T13:15:27.154Z,50.02
2018-07-14T13:16:27.155Z,49.66
2018-07-14T13:17:27.029Z,49.07
2018-07-14T13:18:27.024Z,48.78
2018-07-14T13:19:26.892Z,49.19
2018-07-14T13:20:26.914Z,47.75
2018-07-14T13:21:26.715Z,48.34
2018-07-14T13:22:26.699Z,47.07
2018-07-14T13:23:26.579Z,46.78
2018-07-14T13:24:26.549Z,47.15
2018-07-14T13:25:26.451Z,47.73
2018-07-14T13:26:26.401Z,46.83
2018-07-14T13:27:26.295Z,48.29
2018-07-14T13:28:26.323Z,47.13
2018-07-14T13:29:26.175Z,47.03
2018-07-14T13:30:26.119Z,47.32
2018-07-14T13:31:26.034Z,48.49
2018-07-14T13:32:26.048Z,47.92
2018-07-14T13:33:25.894Z,47.73
2018-07-14T13:34:25.800Z,47.63
2018-07-14T13:35:25.786Z,48.02
2018-07-14T13:36:26.000Z,47.63
2018-07-14T13:37:25.587Z,47.88
2018-07-14T13:38:25.657Z,48.07
2018-07-14T13:39:25.425Z,48.17
2018-07-14T13:40:25.589Z,47.88
2018-07-14T13:41:25.408Z,47.69
2018-07-14T13:42:25.327Z,47.90
2018-07-14T13:43:25.142Z,47.61
2018-07-14T13:44:25.812Z,47.73
2018-07-14T13:45:25.013Z,47.15
2018-07-14T13:46:25.022Z,46.86
2018-07-14T13:47:24.904Z,46.86
2018-07-14T13:48:24.929Z,46.37
2018-07-14T13:49:24.703Z,46.56
2018-07-14T13:50:25.799Z,45.98
2018-07-14T13:51:24.566Z,45.86
2018-07-14T13:52:24.655Z,46.25
2018-07-14T13:53:24.423Z,46.34
2018-07-14T13:54:24.450Z,45.28
2018-07-14T13:55:31.727Z,45.37
2018-07-14T13:56:24.269Z,44.98
2018-07-14T13:57:24.189Z,44.98
2018-07-14T13:59:59.537Z,45.86
2018-07-14T14:00:59.388Z,46.05
2018-07-14T14:01:59.406Z,47.44
2018-07-14T14:02:59.221Z,47.15
2018-07-14T14:03:59.206Z,47.27
2018-07-14T14:04:59.083Z,47.05
2018-07-14T14:05:59.158Z,46.76
2018-07-14T14:06:58.935Z,46.95
2018-07-14T14:07:58.949Z,46.37
2018-07-14T14:08:58.794Z,46.93
2018-07-14T14:09:58.737Z,46.73
2018-07-14T14:10:58.642Z,46.95
2018-07-14T14:11:58.707Z,46.17
2018-07-14T14:12:58.490Z,46.08
2018-07-14T14:13:58.452Z,46.25
2018-07-14T14:14:58.340Z,45.37
2018-07-14T14:15:58.282Z,46.15
2018-07-14T14:16:58.227Z,46.05
2018-07-14T14:17:58.249Z,46.15
2018-07-14T14:18:58.077Z,45.67
2018-07-14T14:19:58.154Z,45.86
2018-07-14T14:20:57.912Z,45.39
2018-07-14T14:21:57.940Z,45.20
2018-07-14T14:22:57.762Z,44.90
2018-07-14T14:23:57.813Z,45.20
2018-07-14T14:24:57.620Z,45.18
2018-07-14T14:25:57.627Z,45.29
2018-07-14T14:26:57.476Z,44.69
2018-07-14T14:27:57.553Z,45.47
2018-07-14T14:28:57.330Z,45.37
2018-07-14T14:29:57.333Z,45.37
2018-07-14T14:30:57.185Z,45.47
2018-07-14T14:31:57.243Z,45.28
2018-07-14T14:32:57.076Z,45.49
2018-07-14T14:33:57.055Z,45.29
2018-07-14T14:34:56.900Z,45.39
2018-07-14T14:35:56.982Z,44.90
2018-07-14T14:36:56.772Z,44.90
2018-07-14T14:37:56.819Z,45.57
2018-07-14T14:38:56.651Z,45.28
2018-07-14T14:39:56.591Z,44.81
2018-07-14T14:40:56.468Z,43.71
2018-07-14T14:41:56.524Z,43.71
2018-07-14T14:42:56.317Z,44.48
2018-07-14T14:43:56.352Z,44.69
2018-07-14T14:44:56.184Z,44.10
2018-07-14T14:45:56.218Z,44.79
2018-07-14T14:46:56.025Z,44.10
2018-07-14T14:47:56.026Z,44.52
2018-07-14T14:48:55.956Z,44.23
2018-07-14T14:49:55.938Z,43.84
2018-07-14T14:50:55.766Z,44.90
2018-07-14T14:51:55.742Z,44.90
2018-07-14T14:52:55.604Z,45.10
2018-07-14T14:53:55.584Z,45.00
2018-07-14T14:54:55.455Z,44.90
2018-07-14T14:55:55.476Z,44.49
2018-07-14T14:56:55.298Z,44.49
2018-07-14T14:57:55.281Z,44.79
2018-07-14T14:58:55.200Z,45.74
2018-07-14T14:59:55.112Z,46.51
2018-07-14T15:00:55.023Z,47.00
2018-07-14T15:01:54.969Z,47.20
2018-07-14T15:02:54.943Z,47.39
2018-07-14T15:03:54.902Z,47.59
2018-07-14T15:04:54.761Z,47.10
2018-07-14T15:05:54.707Z,46.71
2018-07-14T15:06:54.591Z,47.39
2018-07-14T15:07:54.526Z,46.91
2018-07-14T15:08:54.433Z,46.61
2018-07-14T15:09:54.463Z,46.42
2018-07-14T15:10:54.286Z,46.13
2018-07-14T15:11:54.340Z,46.13
2018-07-14T15:12:54.143Z,46.13
2018-07-14T15:13:54.136Z,45.08
2018-07-14T15:14:54.024Z,45.95
2018-07-14T15:15:54.056Z,45.28
2018-07-14T15:16:53.871Z,46.05
2018-07-14T15:17:53.865Z,46.03
2018-07-14T15:18:53.729Z,47.03
2018-07-14T15:19:53.708Z,47.13
2018-07-14T15:20:53.593Z,47.10
2018-07-14T15:21:53.583Z,47.49
2018-07-14T15:22:54.213Z,47.30
2018-07-14T15:23:53.499Z,47.00
2018-07-14T15:24:53.273Z,47.10
2018-07-14T15:25:53.446Z,47.20
2018-07-14T15:26:53.123Z,47.20
2018-07-14T15:27:53.147Z,47.49
2018-07-14T15:28:52.999Z,47.30
2018-07-14T15:29:53.025Z,47.78
2018-07-14T15:30:52.864Z,47.49
2018-07-14T15:31:52.852Z,47.78
2018-07-14T15:32:52.779Z,47.10
2018-07-14T15:33:52.746Z,46.81
2018-07-14T15:34:52.552Z,46.98
2018-07-14T15:35:52.569Z,46.88
2018-07-14T15:36:52.419Z,47.27
2018-07-14T15:37:52.403Z,46.98
2018-07-14T15:38:52.250Z,47.00
2018-07-14T15:39:52.269Z,47.08
2018-07-14T15:40:52.116Z,46.69
2018-07-14T15:41:52.092Z,46.78
2018-07-14T15:42:52.004Z,46.30
2018-07-14T15:43:52.018Z,46.18
2018-07-14T15:44:51.846Z,47.05
2018-07-14T15:45:51.811Z,46.57
2018-07-14T15:46:51.679Z,46.78
2018-07-14T15:47:51.697Z,45.74
2018-07-14T15:48:51.545Z,44.67
2018-07-14T15:49:51.536Z,44.94
2018-07-14T15:50:51.397Z,44.45
2018-07-14T15:51:51.419Z,44.35
2018-07-14T15:52:51.244Z,44.06
2018-07-14T15:53:51.276Z,43.96
2018-07-14T15:54:51.083Z,43.96
2018-07-14T15:55:51.143Z,43.96